createdAt,value
2023-07-31T00:01:06.896Z,101061.66
2023-07-31T00:03:37.087Z,101052.28
2023-07-31T00:06:07.705Z,101057.84
2023-07-31T00:08:39.020Z,101058.63
2023-07-31T00:11:08.189Z,101063.81
2023-07-31T00:13:34.692Z,101052.66
2023-07-31T00:16:03.654Z,101049.88
2023-07-31T00:18:30.192Z,101041.09
2023-07-31T00:20:56.766Z,101028.78
2023-07-31T00:23:23.322Z,101035.31
2023-07-31T00:25:52.480Z,101028.94
2023-07-31T00:28:19.094Z,101021.75
2023-07-31T00:30:49.442Z,101019.78
2023-07-31T00:33:16.017Z,101022.16
2023-07-31T00:35:42.531Z,101016.97
2023-07-31T00:38:11.308Z,101027.13
2023-07-31T00:40:40.612Z,101025.09
2023-07-31T00:43:07.348Z,101014.34
2023-07-31T00:45:38.943Z,101010.94
2023-07-31T00:48:10.201Z,101010.53
2023-07-31T00:50:37.276Z,101011.50
2023-07-31T00:53:06.679Z,101001.31
2023-07-31T00:55:39.660Z,100998.66
2023-07-31T00:58:09.028Z,100992.25
2023-07-31T01:00:35.802Z,100992.75
2023-07-31T01:03:02.990Z,100994.50
2023-07-31T01:06:11.606Z,100993.50
2023-07-31T01:09:04.463Z,100995.41
2023-07-31T01:11:47.813Z,100991.50
2023-07-31T01:14:14.413Z,100991.91
2023-07-31T01:16:47.833Z,100984.28
2023-07-31T01:19:18.820Z,100980.25
2023-07-31T01:21:54.565Z,100985.78
2023-07-31T01:24:22.957Z,100999.13
2023-07-31T01:27:05.553Z,101010.88
2023-07-31T01:29:34.924Z,101009.28
2023-07-31T01:32:06.036Z,101004.31
2023-07-31T01:34:34.819Z,100986.22
2023-07-31T01:37:02.791Z,100990.03
2023-07-31T01:39:31.779Z,100997.22
2023-07-31T01:42:01.310Z,100998.47
2023-07-31T01:44:29.349Z,100995.06
2023-07-31T01:46:56.104Z,100997.66
2023-07-31T01:49:32.371Z,100994.25
2023-07-31T01:51:59.921Z,100998.47
2023-07-31T01:54:26.501Z,100990.25
2023-07-31T01:56:53.206Z,100978.06
2023-07-31T01:59:24.404Z,100972.47
2023-07-31T02:01:55.729Z,100973.84
2023-07-31T02:04:22.332Z,100969.25
2023-07-31T02:06:51.158Z,100966.22
2023-07-31T02:09:20.070Z,100969.41
2023-07-31T02:11:52.268Z,100962.19
2023-07-31T02:14:22.240Z,100968.38
2023-07-31T02:16:48.844Z,100960.59
2023-07-31T02:19:15.439Z,100959.03
2023-07-31T02:21:44.222Z,100954.81
2023-07-31T02:24:16.155Z,100944.91
2023-07-31T02:26:43.260Z,100944.31
2023-07-31T02:29:10.170Z,100945.31
2023-07-31T02:31:39.364Z,100935.16
2023-07-31T02:34:10.738Z,100942.16
2023-07-31T02:36:39.251Z,100939.78
2023-07-31T02:39:07.808Z,100940.59
2023-07-31T02:41:39.286Z,100936.41
2023-07-31T02:44:09.088Z,100937.19
2023-07-31T02:46:36.558Z,100937.19
2023-07-31T02:49:04.812Z,100938.00
2023-07-31T02:51:31.351Z,100932.00
2023-07-31T02:54:00.557Z,100933.00
2023-07-31T02:56:33.813Z,100934.59
2023-07-31T02:59:04.202Z,100921.66
2023-07-31T03:01:30.870Z,100919.06
2023-07-31T03:04:01.197Z,100920.03
2023-07-31T03:06:28.273Z,100920.03
2023-07-31T03:08:58.445Z,100917.44
2023-07-31T03:11:27.840Z,100919.25
2023-07-31T03:13:55.530Z,100915.88
2023-07-31T03:16:22.156Z,100924.44
2023-07-31T03:18:48.732Z,100923.88
2023-07-31T03:21:15.461Z,100923.06
2023-07-31T03:23:44.650Z,100926.44
2023-07-31T03:26:14.013Z,100926.69
2023-07-31T03:28:44.174Z,100919.09
2023-07-31T03:31:12.886Z,100911.91
2023-07-31T03:33:39.830Z,100921.50
2023-07-31T03:36:07.134Z,100913.72
2023-07-31T03:38:33.808Z,100918.13
2023-07-31T03:41:00.389Z,100911.53
2023-07-31T03:43:28.131Z,100911.78
2023-07-31T03:45:54.779Z,100907.59
2023-07-31T03:48:21.332Z,100913.75
2023-07-31T03:50:47.821Z,100918.16
2023-07-31T03:53:25.116Z,100916.56
2023-07-31T03:55:54.118Z,100909.59
2023-07-31T03:58:23.530Z,100909.03
2023-07-31T04:00:51.266Z,100911.63
2023-07-31T04:03:18.016Z,100909.03
2023-07-31T04:05:46.829Z,100898.09
2023-07-31T04:08:20.529Z,100905.03
2023-07-31T04:10:47.001Z,100897.50
2023-07-31T04:13:16.365Z,100893.53
2023-07-31T04:15:46.225Z,100893.53
2023-07-31T04:18:17.687Z,100896.34
2023-07-31T04:20:46.401Z,100876.84
2023-07-31T04:23:16.522Z,100878.03
2023-07-31T04:25:43.058Z,100874.66
2023-07-31T04:28:09.650Z,100873.88
2023-07-31T04:30:38.691Z,100867.09
2023-07-31T04:33:07.901Z,100870.28
2023-07-31T04:35:38.326Z,100869.47
2023-07-31T04:38:10.109Z,100874.66
2023-07-31T04:40:43.171Z,100880.22
2023-07-31T04:43:14.582Z,100880.78
2023-07-31T04:45:47.917Z,100878.97
2023-07-31T04:48:19.215Z,100878.00
2023-07-31T04:50:50.532Z,100878.97
2023-07-31T04:53:17.035Z,100868.06
2023-07-31T04:55:45.892Z,100862.88
2023-07-31T04:58:15.119Z,100862.31
2023-07-31T05:00:43.557Z,100855.31
2023-07-31T05:03:12.034Z,100855.31
2023-07-31T05:05:41.732Z,100852.13
2023-07-31T05:08:10.649Z,100845.38
2023-07-31T05:10:39.531Z,100851.78
2023-07-31T05:13:06.487Z,100854.19
2023-07-31T05:15:33.098Z,100845.03
2023-07-31T05:18:01.904Z,100841.88
2023-07-31T05:20:32.873Z,100843.91
2023-07-31T05:23:01.908Z,100843.13
2023-07-31T05:25:31.568Z,100843.13
2023-07-31T05:28:00.753Z,100837.13
2023-07-31T05:30:27.417Z,100841.72
2023-07-31T05:33:00.281Z,100843.31
2023-07-31T05:35:27.295Z,100835.97
2023-07-31T05:37:57.050Z,100841.94
2023-07-31T05:40:23.544Z,100835.97
2023-07-31T05:42:54.938Z,100835.97
2023-07-31T05:45:21.513Z,100834.41
2023-07-31T05:47:50.757Z,100826.63
2023-07-31T05:50:17.451Z,100813.47
2023-07-31T05:52:46.376Z,100815.25
2023-07-31T05:55:20.131Z,100819.44
2023-07-31T05:57:46.966Z,100812.44
2023-07-31T06:00:17.100Z,100806.47
2023-07-31T06:02:45.530Z,100802.88
2023-07-31T06:05:16.275Z,100799.88
2023-07-31T06:07:42.875Z,100795.25
2023-07-31T06:10:14.681Z,100786.47
2023-07-31T06:12:44.606Z,100794.03
2023-07-31T06:15:13.427Z,100799.00
2023-07-31T06:17:40.124Z,100786.06
2023-07-31T06:20:07.981Z,100791.84
2023-07-31T06:22:34.486Z,100789.25
2023-07-31T06:25:03.160Z,100782.84
2023-07-31T06:27:32.169Z,100787.00
2023-07-31T06:30:03.510Z,100780.59
2023-07-31T06:32:32.693Z,100782.19
2023-07-31T06:34:59.667Z,100777.00
2023-07-31T06:37:28.771Z,100772.81
2023-07-31T06:39:57.815Z,100772.63
2023-07-31T06:42:26.604Z,100776.16
2023-07-31T06:44:53.154Z,100757.00
2023-07-31T06:47:19.728Z,100759.72
2023-07-31T06:49:46.197Z,100757.47
2023-07-31T06:52:12.793Z,100761.22
2023-07-31T06:54:39.300Z,100758.41
2023-07-31T06:57:05.924Z,100753.81
2023-07-31T06:59:34.961Z,100747.38
2023-07-31T07:02:06.882Z,100750.91
2023-07-31T07:04:36.383Z,100745.06
2023-07-31T07:07:03.172Z,100742.59
2023-07-31T07:09:34.488Z,100743.50
2023-07-31T07:12:02.281Z,100741.94
2023-07-31T07:14:28.663Z,100747.13
2023-07-31T07:16:58.738Z,100746.09
2023-07-31T07:19:27.460Z,100745.09
2023-07-31T07:21:53.976Z,100742.28
2023-07-31T07:24:23.971Z,100747.81
2023-07-31T07:26:51.999Z,100740.81
2023-07-31T07:29:21.043Z,100743.22
2023-07-31T07:31:47.833Z,100732.84
2023-07-31T07:34:14.451Z,100731.59
2023-07-31T07:36:42.294Z,100738.16
2023-07-31T07:39:11.200Z,100736.13
2023-07-31T07:41:43.252Z,100738.06
2023-07-31T07:44:10.040Z,100736.56
2023-07-31T07:46:39.157Z,100734.34
2023-07-31T07:49:06.627Z,100726.31
2023-07-31T07:51:33.318Z,100733.22
2023-07-31T07:54:02.138Z,100733.22
2023-07-31T07:56:29.052Z,100725.00
2023-07-31T07:58:56.187Z,100724.31
2023-07-31T08:01:22.788Z,100714.97
2023-07-31T08:03:51.590Z,100717.88
2023-07-31T08:06:18.167Z,100717.22
2023-07-31T08:08:45.158Z,100719.59
2023-07-31T08:11:13.927Z,100713.41
2023-07-31T08:13:43.323Z,100705.16
2023-07-31T08:16:12.417Z,100707.44
2023-07-31T08:18:42.005Z,100706.84
2023-07-31T08:21:12.503Z,100703.28
2023-07-31T08:23:41.645Z,100698.97
2023-07-31T08:26:08.695Z,100682.94
2023-07-31T08:28:37.923Z,100666.44
2023-07-31T08:31:06.920Z,100665.31
2023-07-31T08:33:34.567Z,100662.59
2023-07-31T08:36:06.108Z,100670.50
2023-07-31T08:38:37.720Z,100664.97
2023-07-31T08:41:09.045Z,100660.00
2023-07-31T08:43:38.994Z,100661.03
2023-07-31T08:46:09.772Z,100666.88
2023-07-31T08:48:38.432Z,100651.63
2023-07-31T08:51:10.027Z,100663.44
2023-07-31T08:53:39.343Z,100662.44
2023-07-31T08:56:08.124Z,100658.69
2023-07-31T08:58:37.043Z,100665.91
2023-07-31T09:01:06.619Z,100651.09
2023-07-31T09:03:36.968Z,100657.63
2023-07-31T09:06:05.851Z,100661.75
2023-07-31T09:08:35.810Z,100655.84
2023-07-31T09:11:06.598Z,100658.13
2023-07-31T09:13:33.933Z,100667.25
2023-07-31T09:16:03.077Z,100660.94
2023-07-31T09:18:32.340Z,100657.44
2023-07-31T09:21:07.137Z,100656.44
2023-07-31T09:23:45.464Z,100663.31
2023-07-31T09:26:29.351Z,100651.91
2023-07-31T09:28:55.845Z,100648.94
2023-07-31T09:31:43.178Z,100647.38
2023-07-31T09:34:12.472Z,100635.94
2023-07-31T09:36:45.333Z,100644.53
2023-07-31T09:39:12.671Z,100644.88
2023-07-31T09:41:41.118Z,100632.91
2023-07-31T09:44:10.009Z,100639.31
2023-07-31T09:46:38.954Z,100631.66
2023-07-31T09:49:13.400Z,100632.16
2023-07-31T09:51:42.080Z,100623.66
2023-07-31T09:54:16.463Z,100634.44
2023-07-31T09:56:48.376Z,100624.75
2023-07-31T09:59:24.404Z,100626.41
2023-07-31T10:01:59.067Z,100628.06
2023-07-31T10:04:29.088Z,100629.63
2023-07-31T10:06:56.623Z,100629.31
2023-07-31T10:09:26.946Z,100623.31
2023-07-31T10:12:00.542Z,100620.97
2023-07-31T10:14:29.880Z,100623.72
2023-07-31T10:16:59.499Z,100625.28
2023-07-31T10:19:30.094Z,100637.19
2023-07-31T10:21:58.336Z,100633.97
2023-07-31T10:24:28.388Z,100631.22
2023-07-31T10:27:01.357Z,100630.44
2023-07-31T10:29:31.387Z,100629.00
2023-07-31T10:32:00.495Z,100634.69
2023-07-31T10:34:27.566Z,100628.69
2023-07-31T10:37:30.619Z,100624.13
2023-07-31T10:40:01.967Z,100619.16
2023-07-31T10:42:30.890Z,100625.69
2023-07-31T10:45:02.844Z,100620.03
2023-07-31T10:47:30.001Z,100623.47
2023-07-31T10:50:23.418Z,100622.53
2023-07-31T10:52:53.046Z,100622.59
2023-07-31T10:55:22.433Z,100623.31
2023-07-31T10:57:51.233Z,100619.75
2023-07-31T11:00:31.201Z,100621.94
2023-07-31T11:03:02.761Z,100621.94
2023-07-31T11:06:07.550Z,100613.88
2023-07-31T11:08:36.883Z,100618.25
2023-07-31T11:11:03.430Z,100629.03
2023-07-31T11:13:30.596Z,100624.22
2023-07-31T11:15:57.203Z,100612.25
2023-07-31T11:18:24.472Z,100619.47
2023-07-31T11:20:56.283Z,100622.09
2023-07-31T11:23:24.581Z,100615.16
2023-07-31T11:25:54.098Z,100614.25
2023-07-31T11:28:24.427Z,100616.53
2023-07-31T11:30:58.039Z,100610.13
2023-07-31T11:33:25.837Z,100610.63
2023-07-31T11:35:52.413Z,100610.09
2023-07-31T11:38:27.045Z,100615.28
2023-07-31T11:40:54.680Z,100611.16
2023-07-31T11:43:21.952Z,100616.88
2023-07-31T11:45:54.472Z,100614.97
2023-07-31T11:48:27.734Z,100614.41
2023-07-31T11:51:09.831Z,100609.28
2023-07-31T11:54:00.944Z,100609.28
2023-07-31T11:56:28.185Z,100612.53
2023-07-31T11:59:00.797Z,100602.13
2023-07-31T12:01:29.406Z,100607.25
2023-07-31T12:03:57.688Z,100613.31
2023-07-31T12:06:34.489Z,100606.94
2023-07-31T12:09:07.159Z,100605.09
2023-07-31T12:11:50.916Z,100613.16
2023-07-31T12:14:26.722Z,100616.31
2023-07-31T12:17:01.150Z,100615.34
2023-07-31T12:19:34.617Z,100619.31
2023-07-31T12:22:06.849Z,100604.63
2023-07-31T12:24:35.672Z,100609.97
2023-07-31T12:27:10.021Z,100602.94
2023-07-31T12:29:40.807Z,100604.34
2023-07-31T12:32:26.183Z,100598.88
2023-07-31T12:34:54.919Z,100583.72
2023-07-31T12:37:26.634Z,100580.81
2023-07-31T12:39:57.979Z,100579.19
2023-07-31T12:42:28.114Z,100572.41
2023-07-31T12:44:59.554Z,100583.28
2023-07-31T12:47:29.048Z,100572.31
2023-07-31T12:49:58.141Z,100572.56
2023-07-31T12:52:27.144Z,100572.56
2023-07-31T12:54:54.488Z,100580.69
2023-07-31T12:57:31.011Z,100579.09
2023-07-31T12:59:57.925Z,100568.13
2023-07-31T13:02:28.097Z,100566.16
2023-07-31T13:04:57.253Z,100558.72
2023-07-31T13:07:26.754Z,100560.34
2023-07-31T13:09:54.417Z,100560.09
2023-07-31T13:12:24.600Z,100569.63
2023-07-31T13:14:54.148Z,100578.31
2023-07-31T13:17:23.142Z,100568.59
2023-07-31T13:19:49.678Z,100564.22
2023-07-31T13:22:16.218Z,100558.59
2023-07-31T13:24:44.949Z,100564.97
2023-07-31T13:27:13.846Z,100558.47
2023-07-31T13:29:45.123Z,100554.25
2023-07-31T13:32:11.914Z,100550.88
2023-07-31T13:34:41.563Z,100550.91
2023-07-31T13:37:18.972Z,100545.22
2023-07-31T13:39:46.635Z,100535.63
2023-07-31T13:42:13.644Z,100534.63
2023-07-31T13:44:42.129Z,100537.75
2023-07-31T13:47:10.187Z,100528.38
2023-07-31T13:49:44.528Z,100540.50
2023-07-31T13:52:13.306Z,100542.75
2023-07-31T13:54:44.012Z,100527.28
2023-07-31T13:57:13.068Z,100534.72
2023-07-31T13:59:41.834Z,100533.84
2023-07-31T14:02:08.707Z,100529.69
2023-07-31T14:04:37.604Z,100521.41
2023-07-31T14:07:07.607Z,100525.91
2023-07-31T14:09:34.213Z,100527.66
2023-07-31T14:12:00.908Z,100520.56
2023-07-31T14:14:29.901Z,100528.63
2023-07-31T14:16:58.969Z,100534.03
2023-07-31T14:19:26.511Z,100535.00
2023-07-31T14:22:04.985Z,100534.69
2023-07-31T14:24:43.291Z,100518.78
2023-07-31T14:27:11.095Z,100514.84
2023-07-31T14:29:39.697Z,100504.44
2023-07-31T14:32:07.300Z,100508.38
2023-07-31T14:34:34.499Z,100512.56
2023-07-31T14:37:00.996Z,100514.84
2023-07-31T14:39:32.399Z,100506.25
2023-07-31T14:42:01.564Z,100509.66
2023-07-31T14:44:30.960Z,100498.78
2023-07-31T14:46:57.531Z,100512.31
2023-07-31T14:49:24.268Z,100497.25
2023-07-31T14:51:53.021Z,100495.66
2023-07-31T14:54:19.569Z,100487.31
2023-07-31T14:56:46.199Z,100485.16
2023-07-31T14:59:12.844Z,100480.19
2023-07-31T15:01:42.351Z,100479.09
2023-07-31T15:04:11.260Z,100474.69
2023-07-31T15:06:38.080Z,100469.25
2023-07-31T15:09:06.429Z,100466.38
2023-07-31T15:11:33.069Z,100461.13
2023-07-31T15:13:59.617Z,100453.81
2023-07-31T15:16:32.533Z,100451.50
2023-07-31T15:18:59.627Z,100444.25
2023-07-31T15:21:29.025Z,100434.06
2023-07-31T15:23:56.550Z,100427.56
2023-07-31T15:26:25.449Z,100424.88
2023-07-31T15:29:06.684Z,100421.75
2023-07-31T15:31:33.419Z,100414.97
2023-07-31T15:34:01.086Z,100414.97
2023-07-31T15:36:28.538Z,100402.72
2023-07-31T15:38:57.920Z,100409.16
2023-07-31T15:41:27.239Z,100408.88
2023-07-31T15:43:53.731Z,100393.81
2023-07-31T15:46:20.403Z,100389.06
2023-07-31T15:48:46.992Z,100388.53
2023-07-31T15:51:16.295Z,100378.94
2023-07-31T15:53:50.436Z,100379.41
2023-07-31T15:56:17.752Z,100359.63
2023-07-31T15:58:44.827Z,100364.63
2023-07-31T16:01:19.486Z,100371.06
2023-07-31T16:03:46.114Z,100361.44
2023-07-31T16:06:17.667Z,100347.91
2023-07-31T16:08:44.166Z,100349.16
2023-07-31T16:11:13.122Z,100345.00
2023-07-31T16:13:42.437Z,100331.22
2023-07-31T16:16:08.958Z,100345.25
2023-07-31T16:18:38.562Z,100339.53
2023-07-31T16:21:08.901Z,100338.72
2023-07-31T16:23:37.704Z,100335.56
2023-07-31T16:26:06.615Z,100335.31
2023-07-31T16:28:35.478Z,100330.91
2023-07-31T16:31:02.076Z,100332.19
2023-07-31T16:33:29.003Z,100323.88
2023-07-31T16:36:00.444Z,100320.91
2023-07-31T16:38:32.774Z,100320.13
2023-07-31T16:40:59.411Z,100320.38
2023-07-31T16:43:26.802Z,100306.81
2023-07-31T16:45:56.804Z,100304.47
2023-07-31T16:48:25.839Z,100302.13
2023-07-31T16:50:52.547Z,100299.75
2023-07-31T16:53:19.160Z,100287.47
2023-07-31T16:55:45.744Z,100289.53
2023-07-31T16:58:13.288Z,100292.66
2023-07-31T17:00:43.182Z,100291.34
2023-07-31T17:03:11.502Z,100292.91
2023-07-31T17:05:40.468Z,100291.09
2023-07-31T17:08:07.094Z,100295.53
2023-07-31T17:10:33.797Z,100295.00
2023-07-31T17:13:02.938Z,100292.84
2023-07-31T17:15:30.239Z,100278.31
2023-07-31T17:17:59.231Z,100274.91
2023-07-31T17:20:28.028Z,100285.31
2023-07-31T17:22:57.515Z,100275.16
2023-07-31T17:25:26.404Z,100249.41
2023-07-31T17:27:59.559Z,100251.22
2023-07-31T17:30:26.674Z,100256.41
2023-07-31T17:32:57.999Z,100261.63
2023-07-31T17:35:24.532Z,100261.88
2023-07-31T17:37:51.021Z,100258.47
2023-07-31T17:40:20.415Z,100248.88
2023-07-31T17:42:51.864Z,100248.34
2023-07-31T17:45:22.192Z,100250.69
2023-07-31T17:47:52.392Z,100234.31
2023-07-31T17:50:18.903Z,100231.97
2023-07-31T17:52:45.732Z,100229.84
2023-07-31T17:55:12.490Z,100224.91
2023-07-31T17:57:40.088Z,100237.31
2023-07-31T18:00:07.332Z,100252.91
2023-07-31T18:02:39.291Z,100249.53
2023-07-31T18:05:08.235Z,100250.31
2023-07-31T18:07:38.560Z,100246.72
2023-07-31T18:10:12.653Z,100258.88
2023-07-31T18:12:42.137Z,100256.28
2023-07-31T18:15:09.218Z,100244.91
2023-07-31T18:17:35.765Z,100243.88
2023-07-31T18:20:02.399Z,100232.44
2023-07-31T18:22:28.910Z,100237.38
2023-07-31T18:25:00.203Z,100231.97
2023-07-31T18:27:26.754Z,100224.97
2023-07-31T18:29:53.287Z,100236.13
2023-07-31T18:32:19.930Z,100239.28
2023-07-31T18:34:48.902Z,100246.81
2023-07-31T18:37:17.857Z,100245.03
2023-07-31T18:39:46.735Z,100246.59
2023-07-31T18:42:17.738Z,100235.16
2023-07-31T18:44:46.912Z,100244.22
2023-07-31T18:47:13.441Z,100244.72
2023-07-31T18:49:42.600Z,100243.94
2023-07-31T18:52:09.170Z,100241.81
2023-07-31T18:54:41.129Z,100227.25
2023-07-31T18:57:07.738Z,100229.84
2023-07-31T18:59:36.788Z,100215.28
2023-07-31T19:02:03.715Z,100202.31
2023-07-31T19:04:32.898Z,100199.47
2023-07-31T19:06:59.488Z,100202.06
2023-07-31T19:09:37.143Z,100202.31
2023-07-31T19:12:04.311Z,100195.53
2023-07-31T19:14:33.553Z,100175.78
2023-07-31T19:17:03.687Z,100176.03
2023-07-31T19:19:32.456Z,100179.34
2023-07-31T19:21:59.900Z,100173.63
2023-07-31T19:24:34.678Z,100179.28
2023-07-31T19:27:06.781Z,100174.59
2023-07-31T19:29:36.770Z,100168.03
2023-07-31T19:32:10.893Z,100162.56
2023-07-31T19:34:37.506Z,100166.41
2023-07-31T19:37:07.697Z,100168.47
2023-07-31T19:39:38.937Z,100158.34
2023-07-31T19:42:08.212Z,100157.25
2023-07-31T19:44:37.565Z,100156.16
2023-07-31T19:47:05.958Z,100156.88
2023-07-31T19:49:35.117Z,100150.56
2023-07-31T19:52:01.690Z,100153.34
2023-07-31T19:54:31.008Z,100147.09
2023-07-31T19:57:00.011Z,100151.41
2023-07-31T19:59:26.769Z,100151.56
2023-07-31T20:01:55.494Z,100167.81
2023-07-31T20:04:25.013Z,100167.75
2023-07-31T20:06:51.912Z,100164.63
2023-07-31T20:09:22.116Z,100162.03
2023-07-31T20:11:48.730Z,100165.41
2023-07-31T20:14:17.687Z,100160.22
2023-07-31T20:16:48.210Z,100166.44
2023-07-31T20:19:14.825Z,100167.75
2023-07-31T20:21:44.021Z,100158.66
2023-07-31T20:24:15.272Z,100156.84
2023-07-31T20:26:43.884Z,100153.47
2023-07-31T20:29:10.531Z,100153.47
2023-07-31T20:31:41.956Z,100153.72
2023-07-31T20:34:13.737Z,100152.34
2023-07-31T20:36:40.764Z,100150.00
2023-07-31T20:39:08.844Z,100144.50
2023-07-31T20:41:38.270Z,100141.63
2023-07-31T20:44:07.342Z,100138.25
2023-07-31T20:46:33.907Z,100132.25
2023-07-31T20:49:02.756Z,100131.25
2023-07-31T20:51:30.428Z,100121.66
2023-07-31T20:53:58.180Z,100121.66
2023-07-31T20:56:24.812Z,100106.09
2023-07-31T20:58:52.329Z,100075.75
2023-07-31T21:01:21.167Z,100071.81
2023-07-31T21:03:48.885Z,100077.00
2023-07-31T21:06:20.604Z,100080.38
2023-07-31T21:08:49.448Z,100064.03
2023-07-31T21:11:17.167Z,100063.25
2023-07-31T21:13:45.305Z,100056.25
2023-07-31T21:16:14.820Z,100050.53
2023-07-31T21:18:41.391Z,100041.97
2023-07-31T21:21:07.934Z,100035.44
2023-07-31T21:23:36.761Z,100043.69
2023-07-31T21:26:05.537Z,100043.47
2023-07-31T21:28:32.319Z,100034.13
2023-07-31T21:31:01.190Z,100020.38
2023-07-31T21:33:34.169Z,100015.19
2023-07-31T21:36:00.751Z,100015.44
2023-07-31T21:38:29.794Z,100006.88
2023-07-31T21:40:58.654Z,100005.53
2023-07-31T21:43:28.455Z,100006.81
2023-07-31T21:45:55.067Z,99996.66
2023-07-31T21:48:21.585Z,99994.31
2023-07-31T21:50:50.361Z,100000.75
2023-07-31T21:53:19.098Z,100002.78
2023-07-31T21:55:45.702Z,99991.63
2023-07-31T21:58:14.790Z,99992.66
2023-07-31T22:00:44.866Z,99992.91
2023-07-31T22:03:11.526Z,99986.94
2023-07-31T22:05:39.313Z,100001.69
2023-07-31T22:08:06.402Z,99986.94
2023-07-31T22:10:34.023Z,99976.59
2023-07-31T22:13:02.951Z,99986.94
2023-07-31T22:15:29.547Z,99984.09
2023-07-31T22:17:56.150Z,99980.50
2023-07-31T22:20:22.760Z,99977.91
2023-07-31T22:22:52.022Z,99971.94
2023-07-31T22:25:18.810Z,99971.41
2023-07-31T22:27:45.331Z,99964.63
2023-07-31T22:30:16.150Z,99963.06
2023-07-31T22:32:47.499Z,99965.41
2023-07-31T22:35:16.608Z,99950.88
2023-07-31T22:37:43.092Z,99956.63
2023-07-31T22:40:12.585Z,99959.75
2023-07-31T22:42:46.276Z,99956.38
2023-07-31T22:45:17.556Z,99939.25
2023-07-31T22:47:45.939Z,99943.66
2023-07-31T22:50:15.046Z,99934.06
2023-07-31T22:52:43.805Z,99940.03
2023-07-31T22:55:14.498Z,99941.06
2023-07-31T22:57:44.650Z,99937.44
2023-07-31T23:00:11.764Z,99921.88
2023-07-31T23:02:38.337Z,99923.72
2023-07-31T23:05:05.606Z,99922.13
2023-07-31T23:07:37.056Z,99918.75
2023-07-31T23:10:03.787Z,99934.53
2023-07-31T23:12:32.669Z,99934.53
2023-07-31T23:15:01.773Z,99931.34
2023-07-31T23:17:30.268Z,99928.38
2023-07-31T23:19:57.858Z,99939.44
2023-07-31T23:22:30.403Z,99933.66
2023-07-31T23:24:57.062Z,99929.97
2023-07-31T23:27:26.572Z,99936.13
2023-07-31T23:29:55.409Z,99932.66
2023-07-31T23:32:25.266Z,99915.56
2023-07-31T23:34:52.847Z,99905.19
2023-07-31T23:37:21.869Z,99893.53
2023-07-31T23:39:48.366Z,99894.31
2023-07-31T23:42:15.174Z,99896.88
2023-07-31T23:44:42.287Z,99896.31
2023-07-31T23:47:08.856Z,99893.41
2023-07-31T23:49:40.169Z,99891.53
2023-07-31T23:52:11.984Z,99882.22
2023-07-31T23:54:39.030Z,99880.84
2023-07-31T23:57:07.654Z,99884.47
2023-07-31T23:59:38.429Z,99885.97
